Nature

Rosh Pina Airport Is an airport located between Mahanayim and Rosh Pina, Domestic flights are made from it, mainly to Tel Aviv.
The field includes a north-south landing runway (15/33 direction) and a separate landing pad for helicopters away from it. The second runway to the east and west (5/23 direction), and the peripheral taxiways are out of use.

AT EILAT AIRPORT YOU CAN FIND Only one actove RUNWAY (15/33).

Scenery:

Sim Download Size Author
P3D & FSX LLIB Rosh Pina 5.5MB Freeware ISP
P3D & FSX ICVFR Rosh Pina 32.9MB Freeware Chris Bell

Charts:

File Name
General Aerodrome Chart
Ground Parkings Chart
CVFR Lanes of entry / exit on low transport routes and helicopter routes
CVFR Traffic Pattrens Chart
Departure DESHE1B / DESHE1A Departure RWY 15 and 33
Arrival VOR RWY 15 and 33 (CLOUD BREAK)

METAR & TAF:

Available data for LLIB from the past hour
BEN YA AKOV
Metar
LLIB 140550Z VRB03KT 9999 SCT020 16/13 Q1011

05:50 UTC

Wind: ° 3kt

Visibility: 9999 m

Sky: SCT 2000 ft

Temp: 16 deg C / 60.8 deg F

Dewpoint: 13 deg C / 55.4 deg F

Pressure: 1011 hPa

TAF
TAF LLIB 140506Z 1406/1506 VRB04KT 9000 FEW015 BECMG 1411/1413 20010KT SCT025 PROB40 1413/1420 6000 TSRA SCT015CB BECMG 1420/1422 VRB04KT 9000 FEW015 PROB40 1422/1506 6000 TSRA SCT015CB TX20/1412Z TN13/1504Z